createdAt,value
2017-08-11T00:00:22.968Z,93.63
2017-08-11T00:00:51.615Z,92.82
2017-08-11T00:01:20.149Z,92.97
2017-08-11T00:01:49.345Z,93.06
2017-08-11T00:02:18.389Z,92.2
2017-08-11T00:02:47.126Z,92.2
2017-08-11T00:03:15.683Z,92.25
2017-08-11T00:03:44.274Z,92.1
2017-08-11T00:04:12.919Z,91.96
2017-08-11T00:04:41.642Z,92.25
2017-08-11T00:05:10.189Z,92.1
2017-08-11T00:05:38.764Z,92.06
2017-08-11T00:06:07.208Z,91.96
2017-08-11T00:06:35.944Z,92.06
2017-08-11T00:07:05.190Z,92.15
2017-08-11T00:07:33.649Z,91.58
2017-08-11T00:08:02.140Z,91
2017-08-11T00:08:30.817Z,91.34
2017-08-11T00:08:59.522Z,91
2017-08-11T00:09:28.472Z,91.05
2017-08-11T00:09:57.238Z,91.1
2017-08-11T00:10:26.076Z,91.19
2017-08-11T00:10:54.748Z,91.82
2017-08-11T00:11:23.485Z,92.25
2017-08-11T00:11:52.424Z,92.35
2017-08-11T00:12:21.075Z,93.02
2017-08-11T00:12:49.701Z,92.63
2017-08-11T00:13:18.236Z,93.4
2017-08-11T00:13:47.415Z,93.02
2017-08-11T00:14:16.435Z,93.88
2017-08-11T00:14:45.227Z,93.69
2017-08-11T00:15:13.955Z,93.78
2017-08-11T00:15:42.613Z,93.78
2017-08-11T00:16:11.078Z,93.69
2017-08-11T00:16:39.710Z,93.88
2017-08-11T00:17:08.398Z,93.88
2017-08-11T00:17:37.029Z,93.98
2017-08-11T00:18:05.797Z,93.02
2017-08-11T00:18:34.438Z,91.96
2017-08-11T00:19:02.798Z,91.58
2017-08-11T00:19:31.923Z,91.96
2017-08-11T00:20:00.569Z,91.96
2017-08-11T00:20:29.280Z,92.06
2017-08-11T00:20:58.228Z,91.19
2017-08-11T00:21:26.833Z,91
2017-08-11T00:21:55.472Z,91
2017-08-11T00:22:24.024Z,90.53
2017-08-11T00:22:52.566Z,90.91
2017-08-11T00:23:21.295Z,90.62
2017-08-11T00:23:49.966Z,90.72
2017-08-11T00:24:18.594Z,90.53
2017-08-11T00:24:47.184Z,91.29
2017-08-11T00:25:15.750Z,91.05
2017-08-11T00:25:44.409Z,92.06
2017-08-11T00:26:12.898Z,91.82
2017-08-11T00:26:41.350Z,92.35
2017-08-11T00:27:10.105Z,92.1
2017-08-11T00:27:38.847Z,92.1
2017-08-11T00:28:07.407Z,92.3
2017-08-11T00:28:36.701Z,91.82
2017-08-11T00:29:05.346Z,92.49
2017-08-11T00:29:33.888Z,92.2
2017-08-11T00:30:02.440Z,92.49
2017-08-11T00:30:30.986Z,92.49
2017-08-11T00:30:59.636Z,92.54
2017-08-11T00:31:28.660Z,91.67
2017-08-11T00:31:57.354Z,92.63
2017-08-11T00:32:25.925Z,92.58
2017-08-11T00:32:54.509Z,91.82
2017-08-11T00:33:23.151Z,92.35
2017-08-11T00:33:51.609Z,93.4
2017-08-11T00:34:20.247Z,93.3
2017-08-11T00:34:48.888Z,93.59
2017-08-11T00:35:17.345Z,94.26
2017-08-11T00:35:45.989Z,94.07
2017-08-11T00:36:14.523Z,94.26
2017-08-11T00:36:43.072Z,94.26
2017-08-11T00:37:11.611Z,94.07
2017-08-11T00:37:40.066Z,94.21
2017-08-11T00:38:08.640Z,93.98
2017-08-11T00:38:37.204Z,93.98
2017-08-11T00:39:05.772Z,93.98
2017-08-11T00:39:34.767Z,93.88
2017-08-11T00:40:03.328Z,93.98
2017-08-11T00:40:32.044Z,93.78
2017-08-11T00:41:00.689Z,93.88
2017-08-11T00:41:29.835Z,94.07
2017-08-11T00:41:58.481Z,94.74
2017-08-11T00:42:27.152Z,94.35
2017-08-11T00:42:55.713Z,94.45
2017-08-11T00:43:24.333Z,94.93
2017-08-11T00:43:52.963Z,94.64
2017-08-11T00:44:21.565Z,93.78
2017-08-11T00:44:50.119Z,93.4
2017-08-11T00:45:18.761Z,93.3
2017-08-11T00:45:47.406Z,93.98
2017-08-11T00:46:16.038Z,93.88
2017-08-11T00:46:44.500Z,93.69
2017-08-11T00:47:13.133Z,93.98
2017-08-11T00:47:41.786Z,93.98
2017-08-11T00:48:10.417Z,93.88
2017-08-11T00:48:38.970Z,93.98
2017-08-11T00:49:07.540Z,93.49
2017-08-11T00:49:36.677Z,93.49
2017-08-11T00:50:05.233Z,93.69
2017-08-11T00:50:33.859Z,93.49
2017-08-11T00:51:02.488Z,93.88
2017-08-11T00:51:31.124Z,93.98
2017-08-11T00:51:59.686Z,93.78
2017-08-11T00:52:28.214Z,94.17
2017-08-11T00:52:56.756Z,93.59
2017-08-11T00:53:25.381Z,93.98
2017-08-11T00:53:53.961Z,93.69
2017-08-11T00:54:22.675Z,93.98
2017-08-11T00:54:51.302Z,93.69
2017-08-11T00:55:19.978Z,93.78
2017-08-11T00:55:48.623Z,94.07
2017-08-11T00:56:17.170Z,93.98
2017-08-11T00:56:45.824Z,94.07
2017-08-11T00:57:14.462Z,93.88
2017-08-11T00:57:43.108Z,94.74
2017-08-11T00:58:11.759Z,94.17
2017-08-11T00:58:40.407Z,94.74
2017-08-11T00:59:09.046Z,93.98
2017-08-11T00:59:37.683Z,93.88
2017-08-11T01:00:06.226Z,93.88
2017-08-11T01:00:34.825Z,93.88
2017-08-11T01:01:03.468Z,93.98
2017-08-11T01:01:32.103Z,93.4
2017-08-11T01:02:00.757Z,93.69
2017-08-11T01:02:29.363Z,93.59
2017-08-11T01:02:57.715Z,93.69
2017-08-11T01:03:26.272Z,93.78
2017-08-11T01:03:54.913Z,93.11
2017-08-11T01:04:23.495Z,93.21
2017-08-11T01:04:52.045Z,92.82
2017-08-11T01:05:20.487Z,92.44
2017-08-11T01:05:49.539Z,91.77
2017-08-11T01:06:50.656Z,91
2017-08-11T01:07:19.411Z,91
2017-08-11T01:07:48.057Z,90.62
2017-08-11T01:08:17.409Z,90.81
2017-08-11T01:08:45.983Z,90.33
2017-08-11T01:09:14.672Z,90.43
2017-08-11T01:09:43.304Z,90.53
2017-08-11T01:10:11.850Z,90.43
2017-08-11T01:10:40.469Z,90.72
2017-08-11T01:11:09.246Z,90.23
2017-08-11T01:11:38.149Z,90.43
2017-08-11T01:12:06.940Z,90.43
2017-08-11T01:12:35.599Z,89.9
2017-08-11T01:13:04.258Z,89.76
2017-08-11T01:13:32.885Z,89.71
2017-08-11T01:14:01.457Z,89.61
2017-08-11T01:14:30.205Z,89.32
2017-08-11T01:14:58.848Z,89.57
2017-08-11T01:15:27.496Z,89.57
2017-08-11T01:15:55.952Z,88.99
2017-08-11T01:16:24.591Z,88.99
2017-08-11T01:16:53.262Z,89.09
2017-08-11T01:17:21.870Z,88.23
2017-08-11T01:17:50.519Z,88.8
2017-08-11T01:18:19.053Z,87.94
2017-08-11T01:18:47.615Z,87.27
2017-08-11T01:19:16.383Z,86.98
2017-08-11T01:19:45.069Z,87.08
2017-08-11T01:20:13.730Z,87.08
2017-08-11T01:20:42.375Z,86.88
2017-08-11T01:21:11.001Z,87.46
2017-08-11T01:21:39.643Z,87.55
2017-08-11T01:22:08.191Z,86.98
2017-08-11T01:22:37.330Z,87.27
2017-08-11T01:23:05.944Z,87.17
2017-08-11T01:23:34.486Z,87.55
2017-08-11T01:24:03.119Z,87.46
2017-08-11T01:24:31.763Z,88.13
2017-08-11T01:25:00.447Z,88.13
2017-08-11T01:25:29.308Z,88.7
2017-08-11T01:25:57.976Z,88.99
2017-08-11T01:26:26.646Z,89.18
2017-08-11T01:26:55.209Z,88.9
2017-08-11T01:27:23.754Z,89.57
2017-08-11T01:27:52.427Z,89.37
2017-08-11T01:28:21.674Z,90.23
2017-08-11T01:28:50.328Z,90.76
2017-08-11T01:29:18.899Z,90.62
2017-08-11T01:29:47.537Z,90.91
2017-08-11T01:30:16.076Z,91.19
2017-08-11T01:30:44.616Z,91.14
2017-08-11T01:31:13.166Z,90.91
2017-08-11T01:31:41.706Z,91.19
2017-08-11T01:32:10.351Z,91.1
2017-08-11T01:32:38.821Z,91.14
2017-08-11T01:33:07.438Z,91.14
2017-08-11T01:33:36.070Z,91.29
2017-08-11T01:34:04.704Z,89.28
2017-08-11T01:34:33.253Z,88.7
2017-08-11T01:35:01.947Z,88.8
2017-08-11T01:35:31.381Z,88.32
2017-08-11T01:36:00.021Z,88.03
2017-08-11T01:36:28.412Z,87.46
2017-08-11T01:36:57.166Z,87.46
2017-08-11T01:37:25.725Z,87.74
2017-08-11T01:37:54.354Z,87.27
2017-08-11T01:38:23.070Z,87.84
2017-08-11T01:38:52.092Z,88.13
2017-08-11T01:39:20.731Z,88.13
2017-08-11T01:39:49.367Z,88.13
2017-08-11T01:40:18.007Z,88.13
2017-08-11T01:40:46.468Z,87.65
2017-08-11T01:41:15.025Z,88.32
2017-08-11T01:41:43.620Z,87.94
2017-08-11T01:42:12.061Z,87.94
2017-08-11T01:42:40.703Z,87.84
2017-08-11T01:43:09.329Z,87.94
2017-08-11T01:43:37.977Z,87.74
2017-08-11T01:44:06.573Z,87.08
2017-08-11T01:44:35.121Z,87.08
2017-08-11T01:45:03.755Z,87.27
2017-08-11T01:45:32.383Z,87.46
2017-08-11T01:46:00.901Z,87.55
2017-08-11T01:46:29.542Z,87.17
2017-08-11T01:46:58.177Z,87.37
2017-08-11T01:47:26.821Z,87.17
2017-08-11T01:47:55.283Z,87.17
2017-08-11T01:48:23.916Z,86.6
2017-08-11T01:48:52.548Z,86.12
2017-08-11T01:49:21.324Z,86.21
2017-08-11T01:49:49.961Z,85.35
2017-08-11T01:50:18.609Z,85.74
2017-08-11T01:50:47.235Z,85.83
2017-08-11T01:51:15.858Z,85.74
2017-08-11T01:51:44.510Z,86.02
2017-08-11T01:52:13.045Z,85.83
2017-08-11T01:52:41.666Z,85.93
2017-08-11T01:53:10.207Z,86.12
2017-08-11T01:53:38.788Z,85.64
2017-08-11T01:54:07.349Z,86.12
2017-08-11T01:54:35.902Z,86.02
2017-08-11T01:55:04.437Z,86.02
2017-08-11T01:55:33.074Z,85.74
2017-08-11T01:56:01.713Z,86.02
2017-08-11T01:56:30.375Z,85.93
2017-08-11T01:56:59.031Z,86.12
2017-08-11T01:57:27.661Z,86.12
2017-08-11T01:57:56.289Z,86.69
2017-08-11T01:58:25.499Z,86.79
2017-08-11T01:58:54.043Z,86.69
2017-08-11T01:59:22.585Z,86.41
2017-08-11T01:59:51.022Z,87.65
2017-08-11T02:00:19.673Z,87.55
2017-08-11T02:00:48.528Z,87.27
2017-08-11T02:01:17.067Z,87.37
2017-08-11T02:01:45.643Z,87.46
2017-08-11T02:02:14.266Z,87.46
2017-08-11T02:02:42.809Z,87.17
2017-08-11T02:03:11.349Z,87.55
2017-08-11T02:03:40.009Z,88.51
2017-08-11T02:04:08.543Z,87.84
2017-08-11T02:04:37.095Z,88.23
2017-08-11T02:05:05.695Z,87.46
2017-08-11T02:05:34.275Z,87.94
2017-08-11T02:06:02.810Z,87.37
2017-08-11T02:06:31.442Z,87.37
2017-08-11T02:07:00.091Z,88.13
2017-08-11T02:07:28.634Z,87.65
2017-08-11T02:07:57.203Z,88.42
2017-08-11T02:08:25.819Z,89.28
2017-08-11T02:08:54.984Z,89.18
2017-08-11T02:09:23.517Z,88.9
2017-08-11T02:09:52.073Z,89.66
2017-08-11T02:10:20.771Z,89.28
2017-08-11T02:10:49.507Z,89.37
2017-08-11T02:11:17.978Z,88.8
2017-08-11T02:11:46.604Z,89.18
2017-08-11T02:12:15.168Z,88.8
2017-08-11T02:12:43.710Z,88.7
2017-08-11T02:13:12.673Z,88.13
2017-08-11T02:13:41.302Z,87.74
2017-08-11T02:14:09.840Z,87.7
2017-08-11T02:14:38.375Z,86.45
2017-08-11T02:15:07.034Z,86.64
2017-08-11T02:15:35.663Z,86.35
2017-08-11T02:16:04.288Z,88.27
2017-08-11T02:16:32.924Z,88.27
2017-08-11T02:17:01.474Z,87.98
2017-08-11T02:17:30.021Z,88.17
2017-08-11T02:17:58.662Z,87.5
2017-08-11T02:18:27.303Z,88.17
2017-08-11T02:18:55.869Z,89.28
2017-08-11T02:19:24.620Z,89.47
2017-08-11T02:19:53.255Z,88.99
2017-08-11T02:20:22.368Z,88.99
2017-08-11T02:20:51.488Z,88.9
2017-08-11T02:21:20.136Z,88.13
2017-08-11T02:21:48.770Z,88.13
2017-08-11T02:22:17.414Z,88.03
2017-08-11T02:22:46.055Z,88.23
2017-08-11T02:23:14.684Z,87.65
2017-08-11T02:23:43.327Z,87.84
2017-08-11T02:24:12.038Z,88.32
2017-08-11T02:24:40.571Z,89.18
2017-08-11T02:25:09.224Z,88.99
2017-08-11T02:25:37.868Z,89.18
2017-08-11T02:26:06.539Z,89.18
2017-08-11T02:26:35.178Z,88.99
2017-08-11T02:27:03.739Z,89.18
2017-08-11T02:27:32.349Z,88.9
2017-08-11T02:28:00.905Z,89.18
2017-08-11T02:28:29.449Z,89.28
2017-08-11T02:28:58.130Z,88.99
2017-08-11T02:29:26.762Z,89.57
2017-08-11T02:29:55.403Z,89.09
2017-08-11T02:30:23.948Z,90.23
2017-08-11T02:30:52.510Z,90.62
2017-08-11T02:31:20.978Z,91.19
2017-08-11T02:31:49.601Z,91
2017-08-11T02:32:18.238Z,91.19
2017-08-11T02:32:46.790Z,91.39
2017-08-11T02:33:15.446Z,91.19
2017-08-11T02:33:43.984Z,91.49
2017-08-11T02:34:12.697Z,91.67
2017-08-11T02:34:41.338Z,92.3
2017-08-11T02:35:09.882Z,91.67
2017-08-11T02:35:38.513Z,92.01
2017-08-11T02:36:07.160Z,92.15
2017-08-11T02:36:36.319Z,91.44
2017-08-11T02:37:04.947Z,91.29
2017-08-11T02:37:33.489Z,91.19
2017-08-11T02:38:02.115Z,91.67
2017-08-11T02:38:30.795Z,92.11
2017-08-11T02:38:59.427Z,91.96
2017-08-11T02:39:28.047Z,91.82
2017-08-11T02:39:56.580Z,92.4
2017-08-11T02:40:25.267Z,92.06
2017-08-11T02:40:53.896Z,92.06
2017-08-11T02:41:22.526Z,92.58
2017-08-11T02:41:50.981Z,92.15
2017-08-11T02:42:19.619Z,92.25
2017-08-11T02:42:48.213Z,92.06
2017-08-11T02:43:16.859Z,91.58
2017-08-11T02:43:45.510Z,91.39
2017-08-11T02:44:14.413Z,91.67
2017-08-11T02:44:43.018Z,92.11
2017-08-11T02:45:11.471Z,91.39
2017-08-11T02:45:40.128Z,91.86
2017-08-11T02:46:08.767Z,91.25
2017-08-11T02:46:37.324Z,90.96
2017-08-11T02:47:05.963Z,90.81
2017-08-11T02:47:34.496Z,91.1
2017-08-11T02:48:03.169Z,90.48
2017-08-11T02:48:31.791Z,90.33
2017-08-11T02:49:00.355Z,90.62
2017-08-11T02:49:28.982Z,90.53
2017-08-11T02:49:57.668Z,90.91
2017-08-11T02:50:26.040Z,90.33
2017-08-11T02:50:54.611Z,89.52
2017-08-11T02:51:23.231Z,89.66
2017-08-11T02:51:51.857Z,88.99
2017-08-11T02:52:20.404Z,88.99
2017-08-11T02:52:49.034Z,88.9
2017-08-11T02:53:17.597Z,88.99
2017-08-11T02:53:46.228Z,89.28
2017-08-11T02:54:14.696Z,89.28
2017-08-11T02:54:43.334Z,89.66
2017-08-11T02:55:11.877Z,90
2017-08-11T02:55:40.504Z,90.33
2017-08-11T02:56:09.044Z,90.39
2017-08-11T02:56:37.579Z,90.19
2017-08-11T02:57:06.227Z,90.05
2017-08-11T02:57:34.860Z,90.19
2017-08-11T02:58:03.507Z,89.95
2017-08-11T02:58:32.149Z,89.62
2017-08-11T02:59:00.723Z,89.57
2017-08-11T02:59:29.374Z,89.37
2017-08-11T02:59:58.014Z,89.47
2017-08-11T03:00:26.631Z,89.09
2017-08-11T03:00:55.256Z,89.18
2017-08-11T03:01:24.298Z,88.32
2017-08-11T03:01:52.951Z,87.84
2017-08-11T03:02:21.484Z,88.28
2017-08-11T03:02:50.041Z,87.9
2017-08-11T03:03:18.706Z,87.99
2017-08-11T03:03:47.163Z,87.9
2017-08-11T03:04:15.696Z,87.9
2017-08-11T03:04:44.325Z,88.09
2017-08-11T03:05:12.964Z,87.9
2017-08-11T03:05:41.466Z,87.41
2017-08-11T03:06:10.095Z,87.32
2017-08-11T03:06:39.145Z,87.23
2017-08-11T03:07:07.681Z,87.23
2017-08-11T03:07:36.305Z,87.61
2017-08-11T03:08:04.949Z,87.8
2017-08-11T03:08:33.490Z,87.9
2017-08-11T03:09:02.138Z,87.8
2017-08-11T03:09:30.674Z,87.9
2017-08-11T03:09:59.304Z,87.7
2017-08-11T03:10:27.847Z,87.41
2017-08-11T03:10:56.501Z,87.23
2017-08-11T03:11:25.044Z,87.03
2017-08-11T03:11:53.678Z,86.17
2017-08-11T03:12:22.323Z,86.08
2017-08-11T03:12:50.958Z,86.08
2017-08-11T03:13:19.510Z,86.17
2017-08-11T03:13:48.049Z,86.08
2017-08-11T03:14:16.821Z,86.65
2017-08-11T03:14:45.706Z,86.36
2017-08-11T03:15:14.388Z,86.36
2017-08-11T03:15:42.923Z,85.79
2017-08-11T03:16:11.573Z,84.74
2017-08-11T03:16:40.203Z,84.45
2017-08-11T03:17:08.733Z,84.35
2017-08-11T03:17:37.379Z,84.45
2017-08-11T03:18:06.036Z,84.26
2017-08-11T03:18:34.600Z,84.55
2017-08-11T03:19:03.150Z,84.35
2017-08-11T03:19:31.841Z,84.35
2017-08-11T03:20:00.462Z,84.45
2017-08-11T03:20:29.082Z,84.26
2017-08-11T03:20:57.630Z,84.26
2017-08-11T03:21:26.769Z,84.16
2017-08-11T03:21:55.327Z,84.45
2017-08-11T03:22:23.954Z,84.16
2017-08-11T03:22:52.490Z,83.78
2017-08-11T03:23:21.133Z,83.68
2017-08-11T03:23:49.673Z,83.78
2017-08-11T03:24:18.617Z,83.68
2017-08-11T03:24:47.246Z,83.87
2017-08-11T03:25:15.875Z,84.06
2017-08-11T03:25:44.408Z,83.2
2017-08-11T03:26:13.340Z,83.39
2017-08-11T03:26:42.471Z,83.68
2017-08-11T03:27:11.355Z,83.87
2017-08-11T03:27:40.002Z,83.87
2017-08-11T03:28:08.637Z,83.68
2017-08-11T03:28:37.189Z,83.59
2017-08-11T03:29:05.778Z,83.59
2017-08-11T03:29:34.412Z,83.78
2017-08-11T03:30:03.038Z,83.59
2017-08-11T03:30:31.581Z,83.68
2017-08-11T03:31:00.035Z,83.49
2017-08-11T03:31:28.663Z,83.2
2017-08-11T03:31:57.314Z,83.01
2017-08-11T03:32:25.933Z,83.3
2017-08-11T03:32:54.585Z,82.82
2017-08-11T03:33:23.243Z,82.92
2017-08-11T03:33:51.885Z,82.63
2017-08-11T03:34:20.536Z,82.73
2017-08-11T03:34:49.066Z,82.53
2017-08-11T03:35:17.728Z,82.15
2017-08-11T03:35:46.265Z,82.24
2017-08-11T03:36:14.803Z,82.24
2017-08-11T03:36:43.362Z,82.24
2017-08-11T03:37:12.020Z,82.34
2017-08-11T03:37:40.590Z,81.67
2017-08-11T03:38:09.213Z,82.63
2017-08-11T03:38:37.860Z,82.24
2017-08-11T03:39:06.427Z,82.34
2017-08-11T03:39:35.070Z,82.06
2017-08-11T03:40:04.186Z,82.63
2017-08-11T03:40:32.677Z,82.53
2017-08-11T03:41:01.340Z,82.53
2017-08-11T03:41:29.902Z,82.73
2017-08-11T03:41:58.608Z,82.43
2017-08-11T03:42:27.173Z,82.43
2017-08-11T03:42:55.708Z,82.53
2017-08-11T03:43:24.344Z,82.24
2017-08-11T03:43:52.936Z,82.43
2017-08-11T03:44:21.384Z,82.43
2017-08-11T03:44:50.009Z,82.24
2017-08-11T03:45:18.546Z,82.53
2017-08-11T03:45:47.173Z,82.06
2017-08-11T03:46:15.794Z,82.06
2017-08-11T03:46:44.328Z,82.15
2017-08-11T03:47:12.896Z,82.15
2017-08-11T03:47:41.532Z,81.77
2017-08-11T03:48:10.153Z,82.4
2017-08-11T03:48:38.793Z,82.73
2017-08-11T03:49:07.437Z,82.82
2017-08-11T03:49:36.219Z,82.73
2017-08-11T03:50:04.863Z,82.43
2017-08-11T03:50:34.209Z,82.43
2017-08-11T03:51:02.851Z,82.34
2017-08-11T03:51:31.799Z,82.06
2017-08-11T03:52:00.244Z,82.06
2017-08-11T03:52:28.800Z,82.24
2017-08-11T03:52:57.334Z,81.96
2017-08-11T03:53:25.971Z,81.77
2017-08-11T03:53:54.594Z,82.63
2017-08-11T03:54:23.220Z,82.63
2017-08-11T03:54:51.861Z,82.63
2017-08-11T03:55:20.401Z,82.24
2017-08-11T03:55:49.039Z,81.96
2017-08-11T03:56:18.233Z,82.06
2017-08-11T03:56:46.766Z,81.96
2017-08-11T03:57:15.418Z,82.06
2017-08-11T03:57:44.044Z,82.53
2017-08-11T03:58:12.411Z,82.43
2017-08-11T03:58:40.988Z,81.67
2017-08-11T03:59:09.518Z,82.24
2017-08-11T03:59:38.158Z,82.24
2017-08-11T04:00:06.917Z,82.15
2017-08-11T04:00:35.479Z,82.06
2017-08-11T04:01:04.134Z,82.06
2017-08-11T04:01:32.775Z,82.24
2017-08-11T04:02:01.403Z,82.15
2017-08-11T04:02:30.514Z,82.24
2017-08-11T04:02:59.067Z,81.96
2017-08-11T04:03:27.524Z,81.96
2017-08-11T04:03:55.963Z,81.29
2017-08-11T04:04:24.490Z,81.96
2017-08-11T04:04:53.124Z,81.86
2017-08-11T04:05:21.747Z,82.06
2017-08-11T04:05:50.392Z,82.15
2017-08-11T04:06:18.945Z,81.86
2017-08-11T04:06:47.599Z,81.96
2017-08-11T04:07:49.526Z,81.77
2017-08-11T04:08:18.176Z,81.54
2017-08-11T04:08:46.837Z,82.3
2017-08-11T04:09:15.661Z,81.92
2017-08-11T04:09:44.266Z,81.92
2017-08-11T04:10:12.899Z,81.96
2017-08-11T04:10:41.538Z,82.06
2017-08-11T04:11:10.180Z,82.11
2017-08-11T04:11:38.868Z,81.82
2017-08-11T04:12:07.451Z,81.96
2017-08-11T04:12:36.000Z,81.92
2017-08-11T04:13:04.672Z,82.11
2017-08-11T04:13:33.103Z,82.01
2017-08-11T04:14:01.660Z,82.11
2017-08-11T04:14:30.505Z,82.2
2017-08-11T04:14:59.124Z,81.63
2017-08-11T04:15:27.667Z,81.73
2017-08-11T04:15:56.535Z,82.01
2017-08-11T04:16:25.085Z,82.01
2017-08-11T04:16:53.730Z,82.49
2017-08-11T04:17:22.318Z,82.4
2017-08-11T04:17:50.752Z,81.82
2017-08-11T04:18:19.563Z,82.4
2017-08-11T04:18:48.192Z,82.49
2017-08-11T04:19:16.642Z,82.49
2017-08-11T04:19:45.315Z,82.49
2017-08-11T04:20:13.944Z,82.53
2017-08-11T04:20:42.532Z,82.78
2017-08-11T04:21:11.061Z,82.49
2017-08-11T04:21:39.444Z,82.2
2017-08-11T04:22:08.166Z,82.01
2017-08-11T04:22:36.786Z,82.53
2017-08-11T04:23:05.253Z,82.2
2017-08-11T04:23:33.896Z,81.96
2017-08-11T04:24:02.437Z,82.11
2017-08-11T04:24:31.122Z,81.86
2017-08-11T04:24:59.650Z,81.67
2017-08-11T04:25:28.181Z,81.63
2017-08-11T04:25:56.724Z,81.63
2017-08-11T04:26:25.263Z,81.63
2017-08-11T04:26:53.891Z,81.57
2017-08-11T04:27:22.517Z,81.63
2017-08-11T04:27:50.971Z,81.67
2017-08-11T04:28:19.582Z,81.92
2017-08-11T04:28:48.221Z,81.92
2017-08-11T04:29:16.842Z,81.82
2017-08-11T04:29:45.396Z,81.63
2017-08-11T04:30:14.041Z,82.11
2017-08-11T04:30:42.675Z,81.92
2017-08-11T04:31:11.310Z,82.01
2017-08-11T04:31:39.939Z,82.2
2017-08-11T04:32:08.478Z,82.01
2017-08-11T04:32:37.110Z,82.11
2017-08-11T04:33:05.762Z,81.82
2017-08-11T04:33:34.444Z,81.73
2017-08-11T04:34:03.171Z,81.25
2017-08-11T04:34:31.804Z,81.34
2017-08-11T04:35:00.429Z,81.34
2017-08-11T04:35:29.017Z,81.34
2017-08-11T04:35:57.610Z,81.44
2017-08-11T04:36:26.245Z,81.82
2017-08-11T04:36:55.060Z,82.01
2017-08-11T04:37:23.732Z,81.63
2017-08-11T04:37:52.364Z,82.01
2017-08-11T04:38:20.914Z,81.73
2017-08-11T04:38:49.479Z,81.73
2017-08-11T04:39:18.048Z,82.01
2017-08-11T04:39:46.658Z,82.11
2017-08-11T04:40:15.416Z,81.92
2017-08-11T04:40:43.985Z,81.73
2017-08-11T04:41:13.237Z,81.92
2017-08-11T04:41:41.926Z,81.82
2017-08-11T04:42:10.524Z,81.92
2017-08-11T04:42:39.170Z,81.92
2017-08-11T04:43:07.819Z,81.82
2017-08-11T04:43:36.462Z,81.63
2017-08-11T04:44:05.110Z,81.25
2017-08-11T04:44:33.754Z,80.96
2017-08-11T04:45:02.288Z,81.92
2017-08-11T04:45:30.829Z,81.82
2017-08-11T04:45:59.469Z,81.05
2017-08-11T04:46:28.023Z,80.77
2017-08-11T04:46:56.565Z,80.96
2017-08-11T04:47:25.202Z,80.87
2017-08-11T04:47:53.772Z,81.34
2017-08-11T04:48:22.390Z,81.54
2017-08-11T04:48:51.028Z,81.25
2017-08-11T04:49:19.580Z,81.44
2017-08-11T04:49:48.483Z,81.92
2017-08-11T04:50:17.017Z,81.63
2017-08-11T04:50:46.156Z,81.63
2017-08-11T04:51:14.828Z,81.82
2017-08-11T04:51:43.460Z,82.01
2017-08-11T04:52:12.002Z,81.92
2017-08-11T04:52:40.549Z,81.92
2017-08-11T04:53:09.179Z,82.2
2017-08-11T04:53:37.812Z,81.63
2017-08-11T04:54:06.454Z,81.92
2017-08-11T04:54:35.679Z,81.73
2017-08-11T04:55:04.221Z,81.92
2017-08-11T04:55:32.756Z,81.44
2017-08-11T04:56:01.383Z,81.92
2017-08-11T04:56:29.836Z,82.11
2017-08-11T04:56:58.387Z,81.63
2017-08-11T04:57:27.014Z,81.92
2017-08-11T04:57:55.593Z,81.73
2017-08-11T04:58:24.229Z,81.54
2017-08-11T04:58:52.862Z,82.11
2017-08-11T04:59:21.489Z,81.92
2017-08-11T04:59:50.053Z,82.01
2017-08-11T05:00:18.765Z,82.11
2017-08-11T05:00:47.312Z,82.01
2017-08-11T05:01:15.777Z,82.11
2017-08-11T05:01:44.331Z,81.92
2017-08-11T05:02:12.876Z,82.2
2017-08-11T05:02:41.528Z,81.63
2017-08-11T05:03:10.085Z,81.92
2017-08-11T05:03:38.779Z,81.54
2017-08-11T05:04:07.507Z,81.82
2017-08-11T05:04:36.059Z,81.63
2017-08-11T05:05:04.505Z,81.92
2017-08-11T05:05:33.083Z,82.11
2017-08-11T05:06:01.652Z,81.73
2017-08-11T05:06:30.133Z,81.63
2017-08-11T05:06:58.684Z,81.73
2017-08-11T05:07:27.225Z,81.92
2017-08-11T05:07:55.864Z,82.01
2017-08-11T05:08:24.434Z,82.01
2017-08-11T05:08:53.076Z,81.92
2017-08-11T05:09:21.567Z,82.11
2017-08-11T05:09:50.207Z,82.11
2017-08-11T05:10:18.825Z,81.34
2017-08-11T05:10:47.372Z,81.82
2017-08-11T05:11:16.008Z,80.96
2017-08-11T05:11:44.651Z,81.25
2017-08-11T05:12:13.188Z,81.54
2017-08-11T05:12:41.821Z,81.25
2017-08-11T05:13:10.253Z,81.05
2017-08-11T05:13:38.691Z,81.34
2017-08-11T05:14:07.325Z,80.96
2017-08-11T05:14:35.868Z,80.87
2017-08-11T05:15:04.740Z,81.25
2017-08-11T05:15:33.785Z,81.25
2017-08-11T05:16:02.419Z,80.96
2017-08-11T05:16:45.369Z,81.73
2017-08-11T05:17:13.891Z,81.25
2017-08-11T05:17:42.493Z,81.44
2017-08-11T05:18:11.117Z,81.15
2017-08-11T05:18:39.843Z,81.34
2017-08-11T05:19:08.382Z,80.96
2017-08-11T05:19:37.046Z,81.15
2017-08-11T05:20:05.902Z,80.87
2017-08-11T05:20:34.551Z,81.25
2017-08-11T05:21:03.190Z,81.05
2017-08-11T05:21:31.880Z,81.34
2017-08-11T05:22:00.745Z,80.77
2017-08-11T05:22:32.182Z,80.87
2017-08-11T05:23:00.627Z,81.44
2017-08-11T05:23:29.271Z,81.63
2017-08-11T05:23:57.808Z,81.25
2017-08-11T05:24:26.445Z,81.25
2017-08-11T05:24:55.324Z,81.54
2017-08-11T05:25:23.966Z,81.25
2017-08-11T05:25:52.590Z,81.34
2017-08-11T05:26:21.224Z,81.34
2017-08-11T05:26:49.863Z,81.25
2017-08-11T05:27:18.483Z,81.73
2017-08-11T05:27:47.110Z,81.92
2017-08-11T05:28:15.736Z,81.88
2017-08-11T05:28:44.358Z,81.68
2017-08-11T05:29:12.988Z,81.63
2017-08-11T05:29:41.443Z,81.92
2017-08-11T05:30:10.566Z,81.54
2017-08-11T05:30:39.012Z,81.82
2017-08-11T05:31:07.560Z,82.2
2017-08-11T05:31:36.188Z,82.01
2017-08-11T05:32:04.740Z,81.92
2017-08-11T05:32:33.278Z,81.54
2017-08-11T05:33:01.739Z,81.15
2017-08-11T05:33:30.416Z,81.3
2017-08-11T05:33:59.104Z,80.77
2017-08-11T05:34:27.725Z,81.15
2017-08-11T05:34:56.293Z,81.25
2017-08-11T05:35:24.826Z,81.05
2017-08-11T05:35:53.548Z,80.73
2017-08-11T05:36:22.185Z,81.15
2017-08-11T05:36:50.718Z,81.3
2017-08-11T05:37:19.374Z,81.49
2017-08-11T05:37:47.928Z,81.44
2017-08-11T05:38:16.570Z,81.59
2017-08-11T05:38:45.200Z,81.49
2017-08-11T05:39:13.789Z,81.21
2017-08-11T05:39:42.418Z,81.3
2017-08-11T05:40:11.147Z,81.49
2017-08-11T05:40:39.689Z,81.54
2017-08-11T05:41:08.321Z,81.05
2017-08-11T05:41:36.962Z,81.44
2017-08-11T05:42:05.599Z,81.49
2017-08-11T05:42:34.149Z,81.34
2017-08-11T05:43:02.803Z,81.25
2017-08-11T05:43:31.474Z,81.44
2017-08-11T05:44:00.125Z,81.44
2017-08-11T05:44:28.673Z,81.25
2017-08-11T05:44:57.334Z,81.25
2017-08-11T05:45:25.970Z,81.92
2017-08-11T05:45:54.620Z,81.92
2017-08-11T05:46:23.263Z,81.82
2017-08-11T05:46:51.806Z,82.01
2017-08-11T05:47:20.342Z,81.92
2017-08-11T05:47:48.968Z,81.92
2017-08-11T05:48:18.003Z,81.92
2017-08-11T05:48:46.559Z,82.3
2017-08-11T05:49:15.100Z,82.49
2017-08-11T05:49:43.857Z,83.36
2017-08-11T05:50:12.522Z,82.59
2017-08-11T05:50:41.074Z,82.97
2017-08-11T05:51:09.627Z,83.16
2017-08-11T05:51:38.175Z,82.97
2017-08-11T05:52:06.709Z,83.26
2017-08-11T05:52:35.345Z,83.36
2017-08-11T05:53:03.992Z,83.26
2017-08-11T05:53:32.614Z,83.54
2017-08-11T05:54:01.246Z,82.97
2017-08-11T05:54:29.809Z,83.64
2017-08-11T05:54:58.436Z,82.97
2017-08-11T05:55:26.905Z,82.97
2017-08-11T05:55:55.551Z,83.26
2017-08-11T05:56:24.174Z,82.87
2017-08-11T05:56:52.726Z,82.68
2017-08-11T05:57:21.357Z,82.49
2017-08-11T05:57:50.003Z,82.68
2017-08-11T05:58:18.559Z,82.35
2017-08-11T05:58:47.094Z,82.17
2017-08-11T05:59:15.747Z,82.59
2017-08-11T05:59:44.291Z,82.35
2017-08-11T06:00:13.018Z,82.78
2017-08-11T06:00:41.552Z,82.17
2017-08-11T06:01:10.086Z,82.17
2017-08-11T06:01:38.621Z,81.88
2017-08-11T06:02:07.157Z,82.11
2017-08-11T06:02:35.811Z,82.11
2017-08-11T06:03:04.437Z,82.59
2017-08-11T06:03:33.069Z,82.59
2017-08-11T06:04:01.546Z,82.59
2017-08-11T06:04:30.000Z,82.45
2017-08-11T06:04:58.620Z,82.4
2017-08-11T06:05:27.244Z,82.54
2017-08-11T06:05:55.891Z,82.74
2017-08-11T06:06:24.442Z,83.26
2017-08-11T06:06:53.079Z,83.03
2017-08-11T06:07:21.704Z,82.49
2017-08-11T06:07:50.245Z,82.49
2017-08-11T06:08:18.787Z,83.36
2017-08-11T06:08:47.431Z,82.68
2017-08-11T06:09:16.059Z,83.03
2017-08-11T06:09:44.611Z,83.4
2017-08-11T06:10:13.158Z,83.4
2017-08-11T06:10:41.699Z,83.31
2017-08-11T06:11:10.326Z,83.4
2017-08-11T06:11:38.784Z,83.69